Time,TemperatureF,DewpointF,PressureIn,WindDirection,WindDirectionDegrees,WindSpeedMPH,WindSpeedGustMPH,Humidity,HourlyPrecipIn,Conditions,Clouds,dailyrainin,SoftwareType,DateUTC
2013-02-19 00:02:00,45.1,34.1,29.84,SSW,211,4.9,12.1,65,0.00,,CLR,0.00,VWS V14.01,2013-02-19 08:02:00,
2013-02-19 00:07:00,45.1,34.1,29.84,South,189,6.9,9.6,65,0.00,,CLR,0.00,VWS V14.01,2013-02-19 08:07:00,
2013-02-19 00:12:00,45.0,33.9,29.84,SW,220,7.8,10.5,65,0.00,,CLR,0.00,VWS V14.01,2013-02-19 08:12:00,
2013-02-19 00:17:00,45.0,34.3,29.84,SW,226,7.4,10.1,66,0.00,,CLR,0.00,VWS V14.01,2013-02-19 08:17:00,
2013-02-19 00:22:00,45.0,34.3,29.84,SSW,199,8.3,11.0,66,0.00,,CLR,0.00,VWS V14.01,2013-02-19 08:22:00,
2013-02-19 00:27:00,44.8,33.8,29.84,SSE,154,11.2,13.9,65,0.00,,CLR,0.00,VWS V14.01,2013-02-19 08:27:00,
2013-02-19 00:32:00,44.6,33.2,29.84,SSW,193,11.6,12.1,64,0.00,,CLR,0.00,VWS V14.01,2013-02-19 08:32:00,
2013-02-19 00:38:00,44.4,33.0,29.84,SSW,193,10.1,12.1,64,0.00,,CLR,0.00,VWS V14.01,2013-02-19 08:38:00,
2013-02-19 00:43:00,44.2,32.8,29.84,SSW,195,11.2,12.1,64,0.00,,CLR,0.00,VWS V14.01,2013-02-19 08:43:00,
2013-02-19 00:48:00,44.2,32.8,29.84,South,181,4.5,7.4,64,0.00,,CLR,0.00,VWS V14.01,2013-02-19 08:48:00,
2013-02-19 00:53:00,44.4,33.0,29.84,SSE,159,5.8,10.5,64,0.00,,CLR,0.00,VWS V14.01,2013-02-19 08:53:00,
2013-02-19 00:58:00,44.2,32.8,29.84,SE,130,8.7,9.6,64,0.00,,CLR,0.00,VWS V14.01,2013-02-19 08:58:00,
2013-02-19 01:04:00,44.2,32.8,29.84,South,177,6.7,6.7,64,0.00,,CLR,0.00,VWS V14.01,2013-02-19 09:04:00,
2013-02-19 01:09:00,44.2,32.8,29.84,SSW,194,11.2,13.9,64,0.00,,CLR,0.00,VWS V14.01,2013-02-19 09:09:00,
2013-02-19 01:14:00,44.2,32.8,29.84,SSW,207,7.4,11.0,64,0.00,,CLR,0.00,VWS V14.01,2013-02-19 09:14:00,
2013-02-19 01:19:00,44.2,33.2,29.84,SSW,192,7.8,9.6,65,0.00,,CLR,0.00,VWS V14.01,2013-02-19 09:19:00,
2013-02-19 01:24:00,44.1,33.4,29.84,SW,227,8.7,10.1,66,0.00,,CLR,0.00,VWS V14.01,2013-02-19 09:24:00,
2013-02-19 01:29:00,43.9,32.9,29.84,South,191,6.9,11.6,65,0.00,,CLR,0.00,VWS V14.01,2013-02-19 09:29:00,
2013-02-19 01:34:00,43.7,32.3,29.84,South,187,5.8,10.1,64,0.00,,CLR,0.00,VWS V14.01,2013-02-19 09:34:00,
2013-02-19 01:39:00,43.5,32.5,29.84,South,173,8.7,8.7,65,0.00,,CLR,0.00,VWS V14.01,2013-02-19 09:39:00,
2013-02-19 01:44:00,43.5,32.2,29.84,South,189,6.7,10.5,64,0.00,,CLR,0.00,VWS V14.01,2013-02-19 09:44:00,
2013-02-19 01:50:00,43.5,32.2,29.84,SE,146,7.8,9.6,64,0.00,,CLR,0.00,VWS V14.01,2013-02-19 09:50:00,
2013-02-19 01:55:00,43.5,31.8,29.84,South,175,7.4,7.4,63,0.00,,CLR,0.00,VWS V14.01,2013-02-19 09:55:00,
2013-02-19 02:00:00,43.5,31.8,29.84,South,174,10.1,14.3,63,0.00,,CLR,0.00,VWS V14.01,2013-02-19 10:00:00,
2013-02-19 02:06:00,43.3,32.0,29.84,SSW,197,6.3,8.3,64,0.00,,CLR,0.00,VWS V14.01,2013-02-19 10:06:00,
2013-02-19 02:11:00,43.2,31.4,29.84,South,174,12.5,14.3,63,0.00,,CLR,0.00,VWS V14.01,2013-02-19 10:11:00,
2013-02-19 02:16:00,43.2,31.4,29.84,SSE,161,5.8,10.5,63,0.00,,CLR,0.00,VWS V14.01,2013-02-19 10:16:00,
2013-02-19 02:21:00,43.2,31.4,29.84,South,179,5.4,11.6,63,0.00,,CLR,0.00,VWS V14.01,2013-02-19 10:21:00,
2013-02-19 02:26:00,43.0,31.3,29.84,SSW,192,7.4,10.1,63,0.00,,CLR,0.00,VWS V14.01,2013-02-19 10:26:00,
2013-02-19 02:31:00,43.0,30.9,29.81,SSE,155,5.8,8.3,62,0.00,,CLR,0.00,VWS V14.01,2013-02-19 10:31:00,
2013-02-19 02:36:00,43.0,30.9,29.81,South,183,8.7,11.0,62,0.00,,CLR,0.00,VWS V14.01,2013-02-19 10:36:00,
2013-02-19 02:41:00,42.8,30.7,29.81,SSW,197,8.3,9.6,62,0.00,,CLR,0.00,VWS V14.01,2013-02-19 10:41:00,
2013-02-19 02:47:00,42.8,31.1,29.81,SE,145,7.8,9.6,63,0.00,,CLR,0.00,VWS V14.01,2013-02-19 10:47:00,
2013-02-19 02:52:00,42.8,31.1,29.81,SE,142,7.8,7.8,63,0.00,,CLR,0.00,VWS V14.01,2013-02-19 10:52:00,
2013-02-19 02:57:00,42.8,31.1,29.81,SW,230,6.7,9.6,63,0.00,,CLR,0.00,VWS V14.01,2013-02-19 10:57:00,
2013-02-19 03:02:00,42.6,30.9,29.81,South,179,6.7,10.5,63,0.00,,CLR,0.00,VWS V14.01,2013-02-19 11:02:00,
2013-02-19 03:07:00,42.4,30.8,29.81,South,171,6.7,9.6,63,0.00,,CLR,0.00,VWS V14.01,2013-02-19 11:07:00,
2013-02-19 03:12:00,42.3,31.0,29.81,SSE,155,5.8,7.4,64,0.00,,CLR,0.00,VWS V14.01,2013-02-19 11:12:00,
2013-02-19 03:17:00,42.3,31.0,29.81,South,191,3.1,6.3,64,0.00,,CLR,0.00,VWS V14.01,2013-02-19 11:17:00,
2013-02-19 03:22:00,41.9,30.6,29.81,South,176,6.7,12.1,64,0.00,,CLR,0.00,VWS V14.01,2013-02-19 11:22:00,
2013-02-19 03:27:00,41.9,31.0,29.81,SSE,150,6.7,11.2,65,0.00,,CLR,0.00,VWS V14.01,2013-02-19 11:27:00,
2013-02-19 03:32:00,41.7,31.2,29.78,SE,131,8.7,10.5,66,0.00,,CLR,0.00,VWS V14.01,2013-02-19 11:32:00,
2013-02-19 03:37:00,41.5,31.0,29.78,SSE,161,6.7,6.7,66,0.00,,CLR,0.00,VWS V14.01,2013-02-19 11:37:00,
2013-02-19 03:42:00,41.5,31.4,29.78,SE,135,4.9,4.9,67,0.00,,CLR,0.00,VWS V14.01,2013-02-19 11:42:00,
2013-02-19 03:47:00,41.5,31.4,29.81,SE,124,4.5,6.3,67,0.00,,CLR,0.00,VWS V14.01,2013-02-19 11:47:00,
2013-02-19 03:52:00,41.4,31.2,29.81,SSE,161,5.4,5.4,67,0.00,,CLR,0.00,VWS V14.01,2013-02-19 11:52:00,
2013-02-19 03:58:00,41.2,31.4,29.81,SSE,153,4.9,6.7,68,0.00,,CLR,0.00,VWS V14.01,2013-02-19 11:58:00,
2013-02-19 04:03:00,41.2,31.8,29.81,South,173,0.0,7.4,69,0.00,,CLR,0.00,VWS V14.01,2013-02-19 12:03:00,
2013-02-19 04:08:00,41.4,32.0,29.81,SE,146,7.8,7.8,69,0.00,,CLR,0.00,VWS V14.01,2013-02-19 12:08:00,
2013-02-19 04:13:00,41.4,32.0,29.81,SE,146,6.7,6.7,69,0.00,,CLR,0.00,VWS V14.01,2013-02-19 12:13:00,
2013-02-19 04:18:00,41.5,32.1,29.81,SSW,199,6.9,10.1,69,0.00,,CLR,0.00,VWS V14.01,2013-02-19 12:18:00,
2013-02-19 04:23:00,41.7,32.0,29.81,South,191,6.7,6.7,68,0.00,,CLR,0.00,VWS V14.01,2013-02-19 12:23:00,
2013-02-19 04:28:00,41.7,32.0,29.81,South,189,4.9,6.9,68,0.00,,CLR,0.00,VWS V14.01,2013-02-19 12:28:00,
2013-02-19 04:33:00,41.7,32.0,29.81,SSE,159,4.9,7.8,68,0.00,,CLR,0.00,VWS V14.01,2013-02-19 12:33:00,
2013-02-19 04:38:00,41.7,31.6,29.81,South,184,6.3,13.0,67,0.00,,CLR,0.00,VWS V14.01,2013-02-19 12:38:00,
2013-02-19 04:43:00,41.5,31.4,29.81,SSE,164,7.4,10.5,67,0.00,,CLR,0.00,VWS V14.01,2013-02-19 12:43:00,
2013-02-19 04:48:00,41.5,31.8,29.81,SSE,154,13.4,17.2,68,0.00,,CLR,0.00,VWS V14.01,2013-02-19 12:48:00,
2013-02-19 04:53:00,41.5,31.8,29.81,SSE,159,9.2,9.6,68,0.00,,CLR,0.00,VWS V14.01,2013-02-19 12:53:00,
2013-02-19 04:58:00,41.5,31.8,29.81,SSE,157,8.3,12.1,68,0.00,,CLR,0.00,VWS V14.01,2013-02-19 12:58:00,
2013-02-19 05:03:00,41.5,31.8,29.81,SE,145,4.5,9.6,68,0.00,,CLR,0.00,VWS V14.01,2013-02-19 13:03:00,
2013-02-19 05:08:00,41.5,31.8,29.81,SE,142,4.5,10.1,68,0.00,,CLR,0.00,VWS V14.01,2013-02-19 13:08:00,
2013-02-19 05:13:00,41.5,31.8,29.81,SSE,167,3.1,7.8,68,0.00,,CLR,0.00,VWS V14.01,2013-02-19 13:13:00,
2013-02-19 05:19:00,41.5,32.1,29.81,SE,129,6.7,9.6,69,0.00,,CLR,0.00,VWS V14.01,2013-02-19 13:19:00,
2013-02-19 05:24:00,41.4,31.6,29.81,SE,130,7.8,9.2,68,0.00,,CLR,0.00,VWS V14.01,2013-02-19 13:24:00,
2013-02-19 05:29:00,41.5,32.1,29.81,SE,132,7.8,10.5,69,0.00,,CLR,0.00,VWS V14.01,2013-02-19 13:29:00,
2013-02-19 05:34:00,41.5,32.1,29.81,South,173,8.7,9.6,69,0.00,,CLR,0.00,VWS V14.01,2013-02-19 13:34:00,
2013-02-19 05:39:00,41.5,31.8,29.81,SE,139,14.3,14.3,68,0.00,,CLR,0.00,VWS V14.01,2013-02-19 13:39:00,
2013-02-19 05:44:00,41.5,31.8,29.81,SSE,154,8.3,11.2,68,0.00,,CLR,0.00,VWS V14.01,2013-02-19 13:44:00,
2013-02-19 05:49:00,41.5,31.8,29.81,ESE,115,10.1,12.1,68,0.00,,CLR,0.00,VWS V14.01,2013-02-19 13:49:00,
2013-02-19 05:54:00,41.5,31.8,29.81,SSE,152,12.1,14.3,68,0.00,,CLR,0.00,VWS V14.01,2013-02-19 13:54:00,
2013-02-19 05:59:00,41.5,31.8,29.81,SE,134,7.4,15.9,68,0.00,,CLR,0.00,VWS V14.01,2013-02-19 13:59:00,
2013-02-19 06:04:00,41.5,31.8,29.81,SSE,162,6.3,10.5,68,0.00,,FEW044,0.00,VWS V14.01,2013-02-19 14:04:00,
2013-02-19 06:09:00,41.5,31.8,29.81,SSE,151,6.9,9.6,68,0.00,,FEW044,0.00,VWS V14.01,2013-02-19 14:09:00,
2013-02-19 06:14:00,41.4,32.0,29.78,SE,140,6.7,11.0,69,0.00,,FEW044,0.00,VWS V14.01,2013-02-19 14:14:00,
2013-02-19 06:19:00,41.4,32.0,29.78,SE,142,8.3,10.5,69,0.00,,FEW044,0.00,VWS V14.01,2013-02-19 14:19:00,
2013-02-19 06:24:00,41.5,32.5,29.78,ESE,111,5.4,6.3,70,0.00,,FEW044,0.00,VWS V14.01,2013-02-19 14:24:00,
2013-02-19 06:29:00,41.5,32.5,29.78,SE,136,3.1,4.5,70,0.00,,FEW044,0.00,VWS V14.01,2013-02-19 14:29:00,
2013-02-19 06:34:00,41.5,32.8,29.78,SE,128,8.7,8.7,71,0.00,,FEW044,0.00,VWS V14.01,2013-02-19 14:34:00,
2013-02-19 06:39:00,41.5,32.5,29.78,SSE,150,9.6,9.6,70,0.00,,FEW044,0.00,VWS V14.01,2013-02-19 14:39:00,
2013-02-19 06:44:00,41.7,32.7,29.78,South,174,4.9,8.3,70,0.00,,FEW044,0.00,VWS V14.01,2013-02-19 14:44:00,
2013-02-19 06:49:00,41.7,32.7,29.78,SE,145,8.3,10.1,70,0.00,,FEW044,0.00,VWS V14.01,2013-02-19 14:49:00,
2013-02-19 06:54:00,42.1,32.7,29.78,SE,129,8.7,9.2,69,0.00,,FEW044,0.00,VWS V14.01,2013-02-19 14:54:00,
2013-02-19 06:59:00,42.1,32.3,29.78,ESE,114,6.9,11.2,68,0.00,,BKN100,0.00,VWS V14.01,2013-02-19 14:59:00,
2013-02-19 07:04:00,42.1,32.3,29.78,ESE,123,9.6,11.0,68,0.00,,BKN100,0.00,VWS V14.01,2013-02-19 15:04:00,
2013-02-19 07:10:00,42.1,32.7,29.78,ESE,112,6.9,8.7,69,0.00,,BKN100,0.00,VWS V14.01,2013-02-19 15:10:00,
2013-02-19 07:15:00,42.1,33.4,29.78,SE,140,9.2,11.0,71,0.00,,BKN100,0.00,VWS V14.01,2013-02-19 15:15:00,
2013-02-19 07:20:00,41.7,34.4,29.78,SSE,167,10.1,10.5,75,0.00,,BKN100,0.00,VWS V14.01,2013-02-19 15:20:00,
2013-02-19 07:25:00,41.5,35.2,29.78,SE,136,9.2,14.8,78,0.00,,BKN100,0.00,VWS V14.01,2013-02-19 15:25:00,
2013-02-19 07:30:00,41.4,36.3,29.78,SE,132,9.2,10.5,82,0.00,,BKN100,0.00,VWS V14.01,2013-02-19 15:30:00,
2013-02-19 07:35:00,41.2,36.7,29.78,SE,141,7.4,12.1,84,0.00,,BKN100,0.00,VWS V14.01,2013-02-19 15:35:00,
2013-02-19 07:40:00,41.2,37.3,29.78,SE,146,11.0,11.0,86,0.00,,BKN100,0.00,VWS V14.01,2013-02-19 15:40:00,
2013-02-19 07:45:00,41.2,37.6,29.78,SE,133,7.4,12.1,87,0.00,,BKN100,0.00,VWS V14.01,2013-02-19 15:45:00,
2013-02-19 07:50:00,41.0,37.7,29.78,SE,140,11.6,13.0,88,0.00,,BKN100,0.00,VWS V14.01,2013-02-19 15:50:00,
2013-02-19 07:55:00,40.8,37.5,29.78,ESE,113,11.6,15.4,88,0.00,,BKN100,0.00,VWS V14.01,2013-02-19 15:55:00,
2013-02-19 08:00:00,41.0,38.0,29.75,ESE,112,11.2,11.6,89,0.00,,BKN100,0.00,VWS V14.01,2013-02-19 16:00:00,
2013-02-19 08:05:00,41.2,38.2,29.75,SE,143,7.4,11.0,89,0.00,,BKN100,0.00,VWS V14.01,2013-02-19 16:05:00,
2013-02-19 08:10:00,41.2,38.2,29.75,SSE,151,11.2,12.5,89,0.00,,BKN100,0.00,VWS V14.01,2013-02-19 16:10:00,
2013-02-19 08:15:00,41.5,38.5,29.75,ESE,116,10.5,12.1,89,0.00,,BKN100,0.00,VWS V14.01,2013-02-19 16:15:00,
2013-02-19 08:21:00,41.5,38.8,29.75,ESE,109,13.4,15.2,90,0.00,,BKN100,0.00,VWS V14.01,2013-02-19 16:21:00,
2013-02-19 08:26:00,41.5,38.3,29.75,ESE,114,11.0,13.9,88,0.00,,BKN100,0.00,VWS V14.01,2013-02-19 16:26:00,
2013-02-19 08:31:00,41.5,37.7,29.75,SE,125,11.0,15.2,86,0.00,,BKN100,0.00,VWS V14.01,2013-02-19 16:31:00,
2013-02-19 08:36:00,41.9,37.7,29.75,ESE,108,8.3,14.3,85,0.00,,BKN100,0.00,VWS V14.01,2013-02-19 16:36:00,
2013-02-19 08:41:00,41.9,38.0,29.75,SSE,149,11.6,13.0,86,0.00,,BKN100,0.00,VWS V14.01,2013-02-19 16:41:00,
2013-02-19 08:46:00,41.9,38.0,29.75,SE,132,12.5,13.0,86,0.00,,BKN100,0.00,VWS V14.01,2013-02-19 16:46:00,
2013-02-19 08:51:00,41.9,38.0,29.75,SE,139,11.0,12.1,86,0.00,,BKN100,0.00,VWS V14.01,2013-02-19 16:51:00,
2013-02-19 08:56:00,42.3,38.7,29.75,South,169,8.3,10.1,87,0.00,,BKN100,0.00,VWS V14.01,2013-02-19 16:56:00,
2013-02-19 09:01:00,42.4,38.8,29.75,ESE,104,7.4,8.7,87,0.00,,-RA,0.00,VWS V14.01,2013-02-19 17:01:00,
2013-02-19 09:06:00,42.3,39.0,29.75,SE,138,12.1,13.0,88,0.00,,-RA,0.00,VWS V14.01,2013-02-19 17:06:00,
2013-02-19 09:11:00,42.3,39.0,29.75,SE,139,8.7,11.2,88,0.00,,-RA,0.00,VWS V14.01,2013-02-19 17:11:00,
2013-02-19 09:16:00,42.4,39.1,29.75,SSE,151,7.4,9.2,88,0.00,,-RA,0.00,VWS V14.01,2013-02-19 17:16:00,
2013-02-19 09:22:00,42.8,39.5,29.75,SSE,151,11.0,11.0,88,0.00,,-RA,0.00,VWS V14.01,2013-02-19 17:22:00,
2013-02-19 09:27:00,42.6,39.0,29.75,SSE,150,6.7,11.0,87,0.00,,-RA,0.00,VWS V14.01,2013-02-19 17:27:00,
2013-02-19 09:32:00,43.0,40.0,29.72,SE,126,8.3,12.5,89,0.04,,-RA,0.04,VWS V14.01,2013-02-19 17:32:00,
2013-02-19 09:37:00,43.0,40.0,29.72,ESE,120,9.2,11.2,89,0.04,,-RA,0.04,VWS V14.01,2013-02-19 17:37:00,
2013-02-19 09:42:00,43.2,39.6,29.72,SSE,150,9.6,13.0,87,0.04,,-RA,0.04,VWS V14.01,2013-02-19 17:42:00,
2013-02-19 09:47:00,43.0,39.1,29.72,South,170,9.2,10.5,86,0.04,,-RA,0.04,VWS V14.01,2013-02-19 17:47:00,
2013-02-19 09:52:00,43.0,38.8,29.72,SE,129,11.0,13.4,85,0.04,,-RA,0.04,VWS V14.01,2013-02-19 17:52:00,
2013-02-19 09:57:00,42.8,38.3,29.72,SE,134,16.8,16.8,84,0.04,,-RA,0.04,VWS V14.01,2013-02-19 17:57:00,
2013-02-19 10:03:00,43.0,38.5,29.72,SSE,147,10.5,13.0,84,0.04,,-RA,0.04,VWS V14.01,2013-02-19 18:03:00,
2013-02-19 10:08:00,43.0,38.5,29.72,SE,140,8.7,13.4,84,0.04,,-RA,0.04,VWS V14.01,2013-02-19 18:08:00,
2013-02-19 10:13:00,43.3,38.2,29.72,SE,141,13.4,13.4,82,0.04,,-RA,0.04,VWS V14.01,2013-02-19 18:13:00,
2013-02-19 10:18:00,43.7,38.6,29.69,SE,134,9.6,11.6,82,0.04,,-RA,0.04,VWS V14.01,2013-02-19 18:18:00,
2013-02-19 10:24:00,44.2,38.8,29.69,SE,133,6.3,11.6,81,0.04,,-RA,0.04,VWS V14.01,2013-02-19 18:24:00,
2013-02-19 10:29:00,44.1,37.3,29.69,SE,125,10.1,13.4,77,0.04,,-RA,0.04,VWS V14.01,2013-02-19 18:29:00,
2013-02-19 10:34:00,44.2,37.5,29.69,SE,137,8.3,13.4,77,0.00,,-RA,0.04,VWS V14.01,2013-02-19 18:34:00,
2013-02-19 10:39:00,44.6,37.5,29.69,SE,141,7.4,8.3,76,0.00,,-RA,0.04,VWS V14.01,2013-02-19 18:39:00,
2013-02-19 10:44:00,44.6,37.5,29.69,SE,139,11.0,11.0,76,0.00,,-RA,0.04,VWS V14.01,2013-02-19 18:44:00,
2013-02-19 10:49:00,45.0,37.5,29.69,SSE,147,12.1,13.9,75,0.00,,-RA,0.04,VWS V14.01,2013-02-19 18:49:00,
2013-02-19 10:54:00,45.3,37.9,29.69,SSE,150,11.2,16.3,75,0.00,,-RA,0.04,VWS V14.01,2013-02-19 18:54:00,
2013-02-19 10:59:00,45.1,37.0,29.69,South,187,8.7,12.5,73,0.00,,-RA,0.04,VWS V14.01,2013-02-19 18:59:00,
2013-02-19 11:04:00,45.0,36.5,29.69,SE,135,9.2,10.1,72,0.00,,RA,0.04,VWS V14.01,2013-02-19 19:04:00,
2013-02-19 11:09:00,44.8,36.7,29.69,SSW,207,6.9,11.0,73,0.00,,RA,0.04,VWS V14.01,2013-02-19 19:09:00,
2013-02-19 11:14:00,44.6,36.5,29.69,SSE,168,5.4,16.8,73,0.00,,RA,0.04,VWS V14.01,2013-02-19 19:14:00,
2013-02-19 11:19:00,44.2,36.5,29.69,South,183,10.1,13.0,74,0.00,,RA,0.04,VWS V14.01,2013-02-19 19:19:00,
2013-02-19 11:24:00,44.2,37.2,29.69,SSW,205,7.4,10.5,76,0.00,,RA,0.04,VWS V14.01,2013-02-19 19:24:00,
2013-02-19 11:29:00,43.9,37.2,29.69,SW,217,5.8,8.3,77,0.00,,RA,0.04,VWS V14.01,2013-02-19 19:29:00,
2013-02-19 11:35:00,43.5,36.8,29.69,South,184,9.6,13.0,77,0.04,,RA,0.08,VWS V14.01,2013-02-19 19:35:00,
2013-02-19 11:40:00,43.3,37.3,29.69,SE,138,8.7,12.1,79,0.04,,RA,0.08,VWS V14.01,2013-02-19 19:40:00,
2013-02-19 11:45:00,43.0,36.3,29.69,SSE,159,15.9,15.9,77,0.08,,OVC060,0.12,VWS V14.01,2013-02-19 19:45:00,
2013-02-19 11:50:00,43.0,36.0,29.69,SSW,204,11.6,14.8,76,0.08,,OVC060,0.12,VWS V14.01,2013-02-19 19:50:00,
2013-02-19 11:55:00,43.0,36.6,29.69,WSW,237,8.3,10.1,78,0.08,,OVC060,0.12,VWS V14.01,2013-02-19 19:55:00,
2013-02-19 12:00:00,43.0,37.2,29.69,SW,228,9.2,11.0,80,0.12,,OVC090,0.16,VWS V14.01,2013-02-19 20:00:00,
2013-02-19 12:05:00,42.8,37.4,29.69,SW,229,5.4,9.6,81,0.12,,OVC090,0.16,VWS V14.01,2013-02-19 20:05:00,
2013-02-19 12:10:00,42.8,37.7,29.69,WSW,251,8.7,9.6,82,0.12,,OVC090,0.16,VWS V14.01,2013-02-19 20:10:00,
2013-02-19 12:15:00,42.3,37.5,29.69,SW,230,12.1,13.4,83,0.16,,OVC090,0.20,VWS V14.01,2013-02-19 20:15:00,
2013-02-19 12:20:00,41.5,37.1,29.69,South,187,13.0,13.9,84,0.24,,OVC090,0.28,VWS V14.01,2013-02-19 20:20:00,
2013-02-19 12:25:00,41.5,37.7,29.69,SSW,204,14.8,17.7,86,0.24,,OVC090,0.28,VWS V14.01,2013-02-19 20:25:00,
2013-02-19 12:30:00,41.2,37.6,29.69,SSE,167,8.3,15.4,87,0.28,,OVC090,0.31,VWS V14.01,2013-02-19 20:30:00,
2013-02-19 12:36:00,40.3,36.4,29.69,WSW,255,15.2,18.1,86,0.24,,OVC090,0.31,VWS V14.01,2013-02-19 20:36:00,
2013-02-19 12:41:00,40.1,36.5,29.69,SSE,149,10.1,13.9,87,0.28,,OVC090,0.35,VWS V14.01,2013-02-19 20:41:00,
2013-02-19 12:46:00,40.3,36.7,29.69,WSW,250,10.1,13.4,87,0.24,,OVC090,0.35,VWS V14.01,2013-02-19 20:46:00,
2013-02-19 12:51:00,40.5,37.5,29.69,SSE,162,8.7,11.6,89,0.28,,OVC090,0.39,VWS V14.01,2013-02-19 20:51:00,
2013-02-19 12:56:00,40.8,38.1,29.69,SSE,153,14.8,14.8,90,0.28,,OVC090,0.39,VWS V14.01,2013-02-19 20:56:00,
2013-02-19 13:01:00,40.6,38.2,29.69,South,178,10.1,12.1,91,0.24,,OVC110,0.39,VWS V14.01,2013-02-19 21:01:00,
2013-02-19 13:06:00,40.5,38.0,29.69,SSE,148,6.9,13.0,91,0.24,,OVC110,0.39,VWS V14.01,2013-02-19 21:06:00,
2013-02-19 13:12:00,39.9,37.2,29.69,SSE,147,6.7,13.9,90,0.28,,OVC110,0.43,VWS V14.01,2013-02-19 21:12:00,
2013-02-19 13:17:00,39.6,36.6,29.66,SSE,149,11.0,12.1,89,0.20,,OVC110,0.43,VWS V14.01,2013-02-19 21:17:00,
2013-02-19 13:22:00,39.0,35.5,29.66,SE,128,7.8,14.3,87,0.16,,OVC110,0.43,VWS V14.01,2013-02-19 21:22:00,
2013-02-19 13:27:00,38.8,35.6,29.66,ESE,115,8.7,10.1,88,0.16,,OVC110,0.43,VWS V14.01,2013-02-19 21:27:00,
2013-02-19 13:32:00,38.8,35.6,29.66,SE,127,6.7,11.2,88,0.12,,OVC110,0.43,VWS V14.01,2013-02-19 21:32:00,
2013-02-19 13:37:00,39.0,36.1,29.66,SE,146,9.6,12.1,89,0.12,,OVC110,0.43,VWS V14.01,2013-02-19 21:37:00,
2013-02-19 13:43:00,39.2,36.2,29.66,SSE,159,5.4,6.3,89,0.08,,OVC110,0.43,VWS V14.01,2013-02-19 21:43:00,
2013-02-19 13:48:00,39.6,36.9,29.66,SSE,157,7.8,7.8,90,0.08,,-RA,0.43,VWS V14.01,2013-02-19 21:48:00,
2013-02-19 13:53:00,39.6,36.9,29.66,SSE,148,6.3,9.2,90,0.04,,-RA,0.43,VWS V14.01,2013-02-19 21:53:00,
2013-02-19 13:58:00,39.7,37.3,29.66,SE,138,5.8,7.8,91,0.04,,-RA,0.43,VWS V14.01,2013-02-19 21:58:00,
2013-02-19 14:03:00,39.7,37.3,29.66,SSE,162,5.8,9.2,91,0.04,,BKN090,0.43,VWS V14.01,2013-02-19 22:03:00,
2013-02-19 14:08:00,39.9,37.5,29.66,ESE,114,6.3,6.7,91,0.00,,BKN090,0.43,VWS V14.01,2013-02-19 22:08:00,
2013-02-19 14:13:00,40.1,37.7,29.66,ESE,118,4.9,7.4,91,0.00,,BKN090,0.43,VWS V14.01,2013-02-19 22:13:00,
2013-02-19 14:18:00,40.3,37.9,29.63,SE,138,6.9,7.8,91,0.00,,BKN090,0.43,VWS V14.01,2013-02-19 22:18:00,
2013-02-19 14:23:00,40.3,37.6,29.63,SE,141,5.4,9.2,90,0.00,,BKN090,0.43,VWS V14.01,2013-02-19 22:23:00,
2013-02-19 14:28:00,40.3,37.6,29.63,SSE,155,7.8,8.3,90,0.00,,BKN090,0.43,VWS V14.01,2013-02-19 22:28:00,
2013-02-19 14:33:00,40.5,37.8,29.66,SE,140,6.9,7.4,90,0.00,,BKN090,0.43,VWS V14.01,2013-02-19 22:33:00,
2013-02-19 14:38:00,40.8,38.1,29.66,SE,130,7.8,7.8,90,0.00,,BKN090,0.43,VWS V14.01,2013-02-19 22:38:00,
2013-02-19 14:43:00,41.5,38.8,29.66,SE,133,5.8,6.9,90,0.00,,BKN090,0.43,VWS V14.01,2013-02-19 22:43:00,
2013-02-19 14:49:00,40.6,37.1,29.66,SE,140,5.4,6.9,87,0.00,,BKN090,0.43,VWS V14.01,2013-02-19 22:49:00,
2013-02-19 14:54:00,40.6,36.8,29.66,SE,139,5.8,5.8,86,0.00,,BKN090,0.43,VWS V14.01,2013-02-19 22:54:00,
2013-02-19 14:59:00,40.6,36.8,29.66,ESE,111,7.4,7.4,86,0.00,,BKN120,0.43,VWS V14.01,2013-02-19 22:59:00,
2013-02-19 15:04:00,40.6,36.8,29.66,ESE,118,8.3,9.2,86,0.00,,BKN120,0.43,VWS V14.01,2013-02-19 23:04:00,
2013-02-19 15:09:00,40.6,37.1,29.66,SE,125,6.9,8.3,87,0.00,,BKN120,0.43,VWS V14.01,2013-02-19 23:09:00,
2013-02-19 15:14:00,40.8,37.3,29.66,SE,138,8.3,9.6,87,0.00,,BKN120,0.43,VWS V14.01,2013-02-19 23:14:00,
2013-02-19 15:19:00,40.3,36.7,29.66,ESE,122,8.3,9.6,87,0.00,,BKN120,0.43,VWS V14.01,2013-02-19 23:19:00,
2013-02-19 15:24:00,39.9,37.0,29.66,SE,131,9.6,14.8,89,0.00,,BKN120,0.43,VWS V14.01,2013-02-19 23:24:00,
2013-02-19 15:29:00,40.1,37.1,29.66,ESE,118,8.3,10.5,89,0.00,,BKN120,0.43,VWS V14.01,2013-02-19 23:29:00,
2013-02-19 15:34:00,39.9,37.0,29.66,East,94,10.5,10.5,89,0.00,,BKN120,0.43,VWS V14.01,2013-02-19 23:34:00,
2013-02-19 15:39:00,39.7,37.3,29.66,ESE,112,12.5,15.4,91,0.00,,BKN120,0.43,VWS V14.01,2013-02-19 23:39:00,
2013-02-19 15:44:00,40.3,37.9,29.66,WSW,238,0.0,12.1,91,0.00,,BKN120,0.43,VWS V14.01,2013-02-19 23:44:00,
2013-02-19 15:49:00,40.3,37.9,29.63,SE,143,9.2,12.1,91,0.00,,BKN120,0.43,VWS V14.01,2013-02-19 23:49:00,
2013-02-19 15:55:00,40.3,37.9,29.63,SE,129,9.2,9.2,91,0.00,,BKN120,0.43,VWS V14.01,2013-02-19 23:55:00,
2013-02-19 16:00:00,40.3,37.6,29.63,ESE,109,6.9,8.3,90,0.00,,SCT120,0.43,VWS V14.01,2013-02-20 00:00:00,
2013-02-19 16:05:00,40.1,37.1,29.63,ESE,118,11.0,13.9,89,0.00,,SCT120,0.43,VWS V14.01,2013-02-20 00:05:00,
2013-02-19 16:10:00,39.7,36.5,29.63,SE,144,9.2,10.5,88,0.00,,SCT120,0.43,VWS V14.01,2013-02-20 00:10:00,
2013-02-19 16:15:00,39.9,36.4,29.63,SE,127,9.2,9.2,87,0.00,,SCT120,0.43,VWS V14.01,2013-02-20 00:15:00,
2013-02-19 16:21:00,39.9,35.8,29.63,ESE,116,5.4,8.3,85,0.00,,SCT120,0.43,VWS V14.01,2013-02-20 00:21:00,
2013-02-19 16:26:00,39.9,35.8,29.63,SE,129,7.4,8.3,85,0.00,,SCT120,0.43,VWS V14.01,2013-02-20 00:26:00,
2013-02-19 16:31:00,40.1,36.0,29.63,ESE,115,8.7,10.1,85,0.00,,SCT120,0.43,VWS V14.01,2013-02-20 00:31:00,
2013-02-19 16:36:00,40.1,36.0,29.63,SE,137,4.5,6.7,85,0.00,,SCT120,0.43,VWS V14.01,2013-02-20 00:36:00,
2013-02-19 16:41:00,39.9,35.8,29.63,SE,146,4.0,5.8,85,0.00,,SCT120,0.43,VWS V14.01,2013-02-20 00:41:00,
2013-02-19 16:46:00,39.7,35.3,29.63,SSE,147,4.0,7.4,84,0.00,,SCT120,0.43,VWS V14.01,2013-02-20 00:46:00,
2013-02-19 16:51:00,39.7,35.0,29.63,ESE,123,5.4,7.4,83,0.00,,SCT120,0.43,VWS V14.01,2013-02-20 00:51:00,
2013-02-19 16:56:00,39.4,34.3,29.63,SE,127,5.8,7.8,82,0.00,,SCT120,0.43,VWS V14.01,2013-02-20 00:56:00,
2013-02-19 17:02:00,39.4,33.7,29.63,SE,135,6.9,7.4,80,0.00,,SCT060,0.43,VWS V14.01,2013-02-20 01:02:00,
2013-02-19 17:07:00,39.6,33.9,29.63,SSE,159,3.6,4.9,80,0.00,,SCT060,0.43,VWS V14.01,2013-02-20 01:07:00,
2013-02-19 17:12:00,39.7,34.4,29.63,SSE,159,4.5,4.5,81,0.00,,SCT060,0.43,VWS V14.01,2013-02-20 01:12:00,
2013-02-19 17:17:00,39.9,34.6,29.63,SE,140,0.0,4.5,81,0.00,,SCT060,0.43,VWS V14.01,2013-02-20 01:17:00,
2013-02-19 17:22:00,39.7,34.4,29.63,SE,139,0.0,0.0,81,0.00,,SCT060,0.43,VWS V14.01,2013-02-20 01:22:00,
2013-02-19 17:27:00,39.7,34.7,29.63,SE,139,4.5,4.5,82,0.00,,SCT060,0.43,VWS V14.01,2013-02-20 01:27:00,
2013-02-19 17:32:00,39.7,34.7,29.63,SE,140,0.0,0.0,82,0.00,,SCT060,0.43,VWS V14.01,2013-02-20 01:32:00,
2013-02-19 17:37:00,39.7,35.0,29.63,SE,140,3.6,3.6,83,0.00,,SCT060,0.43,VWS V14.01,2013-02-20 01:37:00,
2013-02-19 17:42:00,39.7,35.3,29.63,SE,140,3.6,4.5,84,0.00,,SCT060,0.43,VWS V14.01,2013-02-20 01:42:00,
2013-02-19 17:47:00,39.9,35.8,29.63,SE,142,3.6,4.9,85,0.00,,SCT060,0.43,VWS V14.01,2013-02-20 01:47:00,
2013-02-19 17:52:00,39.9,35.8,29.63,SE,142,0.0,0.0,85,0.00,,SCT060,0.43,VWS V14.01,2013-02-20 01:52:00,
2013-02-19 17:57:00,39.7,35.3,29.63,SE,142,0.0,0.0,84,0.00,,SCT060,0.43,VWS V14.01,2013-02-20 01:57:00,
2013-02-19 18:02:00,39.4,35.0,29.63,SE,142,0.0,0.0,84,0.00,,BKN060,0.43,VWS V14.01,2013-02-20 02:02:00,
2013-02-19 18:08:00,39.2,34.5,29.63,SE,143,0.0,0.0,83,0.00,,BKN060,0.43,VWS V14.01,2013-02-20 02:08:00,
2013-02-19 18:13:00,39.2,34.8,29.63,SE,141,0.0,0.0,84,0.00,,BKN060,0.43,VWS V14.01,2013-02-20 02:13:00,
2013-02-19 18:18:00,38.8,34.4,29.63,SE,142,0.0,0.0,84,0.00,,BKN060,0.43,VWS V14.01,2013-02-20 02:18:00,
2013-02-19 18:23:00,38.8,34.4,29.63,SE,142,0.0,0.0,84,0.00,,BKN060,0.43,VWS V14.01,2013-02-20 02:23:00,
2013-02-19 18:28:00,38.8,34.4,29.63,SE,142,0.0,0.0,84,0.00,,BKN060,0.43,VWS V14.01,2013-02-20 02:28:00,
2013-02-19 18:33:00,38.5,34.1,29.66,SE,143,0.0,0.0,84,0.00,,BKN060,0.43,VWS V14.01,2013-02-20 02:33:00,
2013-02-19 18:38:00,38.5,34.1,29.66,SE,142,3.6,4.0,84,0.00,,BKN060,0.43,VWS V14.01,2013-02-20 02:38:00,
2013-02-19 18:43:00,38.5,34.1,29.66,SE,142,3.6,4.5,84,0.00,,BKN060,0.43,VWS V14.01,2013-02-20 02:43:00,
2013-02-19 18:48:00,38.5,34.1,29.66,SSE,156,3.1,3.6,84,0.00,,BKN060,0.43,VWS V14.01,2013-02-20 02:48:00,
2013-02-19 18:53:00,38.5,34.1,29.66,SSE,157,3.1,3.6,84,0.00,,BKN060,0.43,VWS V14.01,2013-02-20 02:53:00,
2013-02-19 18:58:00,38.3,33.9,29.66,SSE,156,0.0,0.0,84,0.00,,BKN060,0.43,VWS V14.01,2013-02-20 02:58:00,
2013-02-19 19:03:00,37.9,33.5,29.66,SSE,156,0.0,0.0,84,0.00,,BKN070,0.43,VWS V14.01,2013-02-20 03:03:00,
2013-02-19 19:09:00,37.9,33.5,29.66,SSE,157,0.0,0.0,84,0.00,,BKN070,0.43,VWS V14.01,2013-02-20 03:09:00,
2013-02-19 19:14:00,37.9,33.5,29.66,SSE,156,0.0,0.0,84,0.00,,BKN070,0.43,VWS V14.01,2013-02-20 03:14:00,
2013-02-19 19:19:00,37.9,33.8,29.66,SSE,156,0.0,0.0,85,0.00,,BKN070,0.43,VWS V14.01,2013-02-20 03:19:00,
2013-02-19 19:24:00,37.8,33.7,29.66,SSE,157,0.0,0.0,85,0.00,,BKN070,0.43,VWS V14.01,2013-02-20 03:24:00,
2013-02-19 19:29:00,37.8,33.7,29.66,SSE,156,2.7,4.0,85,0.00,,BKN070,0.43,VWS V14.01,2013-02-20 03:29:00,
2013-02-19 19:34:00,37.6,33.5,29.66,SSE,157,0.0,0.0,85,0.00,,BKN070,0.43,VWS V14.01,2013-02-20 03:34:00,
2013-02-19 19:39:00,37.9,34.1,29.66,SSE,157,3.6,4.9,86,0.00,,BKN070,0.43,VWS V14.01,2013-02-20 03:39:00,
2013-02-19 19:44:00,38.3,35.1,29.66,SSE,155,3.6,4.5,88,0.00,,RA,0.43,VWS V14.01,2013-02-20 03:44:00,
2013-02-19 19:49:00,38.5,35.0,29.66,SSE,156,3.1,4.9,87,0.00,,RA,0.43,VWS V14.01,2013-02-20 03:49:00,
2013-02-19 19:54:00,38.3,34.8,29.66,SSE,156,0.0,0.0,87,0.00,,RA,0.43,VWS V14.01,2013-02-20 03:54:00,
2013-02-19 19:59:00,37.9,34.4,29.66,SSE,156,0.0,0.0,87,0.00,,RA,0.43,VWS V14.01,2013-02-20 03:59:00,
2013-02-19 20:04:00,37.8,34.2,29.66,SSE,155,0.0,0.0,87,0.00,,RA,0.43,VWS V14.01,2013-02-20 04:04:00,
2013-02-19 20:09:00,37.6,33.8,29.66,SSE,156,0.0,0.0,86,0.00,,RA,0.43,VWS V14.01,2013-02-20 04:09:00,
2013-02-19 20:15:00,37.8,34.2,29.66,SSE,156,0.0,0.0,87,0.00,,RA,0.43,VWS V14.01,2013-02-20 04:15:00,
2013-02-19 20:20:00,37.4,33.6,29.66,SSE,155,0.0,0.0,86,0.00,,RA,0.43,VWS V14.01,2013-02-20 04:20:00,
2013-02-19 20:25:00,37.6,33.8,29.66,SSE,156,0.0,0.0,86,0.00,,RA,0.43,VWS V14.01,2013-02-20 04:25:00,
2013-02-19 20:30:00,37.4,33.6,29.66,South,179,0.0,0.0,86,0.00,,-RA,0.43,VWS V14.01,2013-02-20 04:30:00,
2013-02-19 20:35:00,37.4,33.6,29.66,South,179,0.0,0.0,86,0.00,,-RA,0.43,VWS V14.01,2013-02-20 04:35:00,
2013-02-19 20:40:00,37.2,33.4,29.66,South,179,0.0,0.0,86,0.00,,-RA,0.43,VWS V14.01,2013-02-20 04:40:00,
2013-02-19 20:45:00,37.4,33.9,29.66,South,179,3.6,4.5,87,0.00,,-RA,0.43,VWS V14.01,2013-02-20 04:45:00,
2013-02-19 20:50:00,37.6,34.1,29.66,South,179,4.5,4.9,87,0.00,,-RA,0.43,VWS V14.01,2013-02-20 04:50:00,
2013-02-19 20:55:00,37.6,34.1,29.66,WNW,289,3.6,4.0,87,0.00,,-RA,0.43,VWS V14.01,2013-02-20 04:55:00,
2013-02-19 21:00:00,37.9,34.7,29.66,WNW,290,0.0,0.0,88,0.00,,BKN090,0.43,VWS V14.01,2013-02-20 05:00:00,
2013-02-19 21:03:00,37.9,34.7,29.66,WNW,289,0.0,0.0,88,0.00,,BKN090,0.43,VWS V14.01,2013-02-20 05:03:00,
2013-02-19 21:04:00,37.9,34.7,29.66,WNW,289,0.0,0.0,88,0.00,,BKN090,0.43,VWS V14.01,2013-02-20 05:04:00,
2013-02-19 21:07:00,37.9,34.7,29.66,WNW,289,0.0,0.0,88,0.00,,BKN090,0.43,VWS V14.01,2013-02-20 05:07:00,
2013-02-19 21:12:00,38.5,35.2,29.66,WNW,289,4.0,4.0,88,0.00,,BKN090,0.43,VWS V14.01,2013-02-20 05:12:00,
2013-02-19 21:17:00,39.0,36.3,29.66,WNW,289,3.1,4.0,90,0.00,,BKN090,0.43,VWS V14.01,2013-02-20 05:17:00,
2013-02-19 21:23:00,38.8,36.2,29.66,WNW,289,3.6,3.6,90,0.00,,BKN090,0.43,VWS V14.01,2013-02-20 05:23:00,
2013-02-19 21:28:00,38.5,35.5,29.66,WNW,288,0.0,0.0,89,0.00,,BKN090,0.43,VWS V14.01,2013-02-20 05:28:00,
2013-02-19 21:33:00,37.6,34.3,29.66,WNW,290,0.0,0.0,88,0.00,,BKN090,0.43,VWS V14.01,2013-02-20 05:33:00,
2013-02-19 21:38:00,37.4,34.2,29.66,WNW,289,0.0,0.0,88,0.00,,BKN090,0.43,VWS V14.01,2013-02-20 05:38:00,
2013-02-19 21:43:00,37.0,33.8,29.66,WNW,289,0.0,0.0,88,0.00,,BKN090,0.43,VWS V14.01,2013-02-20 05:43:00,
2013-02-19 21:48:00,37.0,33.8,29.66,WNW,289,0.0,0.0,88,0.00,,BKN090,0.43,VWS V14.01,2013-02-20 05:48:00,
2013-02-19 21:53:00,36.3,33.4,29.66,WNW,289,0.0,0.0,89,0.00,,BKN090,0.43,VWS V14.01,2013-02-20 05:53:00,
2013-02-19 21:58:00,36.5,33.6,29.66,WNW,289,0.0,0.0,89,0.00,,BKN090,0.43,VWS V14.01,2013-02-20 05:58:00,
2013-02-19 22:03:00,36.1,33.2,29.69,WNW,289,3.1,3.1,89,0.00,,SCT032,0.43,VWS V14.01,2013-02-20 06:03:00,
2013-02-19 22:08:00,35.8,32.9,29.69,WNW,289,0.0,0.0,89,0.00,,SCT032,0.43,VWS V14.01,2013-02-20 06:08:00,
2013-02-19 22:13:00,35.6,33.0,29.69,WNW,289,4.0,4.0,90,0.00,,SCT032,0.43,VWS V14.01,2013-02-20 06:13:00,
2013-02-19 22:18:00,35.6,33.2,29.66,WNW,290,4.0,4.0,91,0.00,,SCT032,0.43,VWS V14.01,2013-02-20 06:18:00,
2013-02-19 22:24:00,35.1,32.7,29.66,WNW,289,3.1,4.0,91,0.00,,SCT032,0.43,VWS V14.01,2013-02-20 06:24:00,
2013-02-19 22:29:00,34.7,32.1,29.66,WNW,289,0.0,0.0,90,0.00,,SCT032,0.43,VWS V14.01,2013-02-20 06:29:00,
2013-02-19 22:34:00,34.3,32.0,29.66,WNW,290,0.0,0.0,91,0.00,,SCT032,0.43,VWS V14.01,2013-02-20 06:34:00,
2013-02-19 22:39:00,33.8,31.2,29.66,WNW,290,0.0,0.0,90,0.00,,SCT032,0.43,VWS V14.01,2013-02-20 06:39:00,
2013-02-19 22:44:00,33.6,31.0,29.66,WNW,289,0.0,0.0,90,0.00,,SCT032,0.43,VWS V14.01,2013-02-20 06:44:00,
2013-02-19 22:49:00,33.4,30.8,29.69,WNW,289,0.0,0.0,90,0.00,,SCT032,0.43,VWS V14.01,2013-02-20 06:49:00,
2013-02-19 22:54:00,33.6,31.3,29.69,WNW,289,4.5,4.5,91,0.00,,SCT032,0.43,VWS V14.01,2013-02-20 06:54:00,
2013-02-19 22:59:00,33.6,31.5,29.69,WNW,289,3.1,3.6,92,0.00,,CLR,0.43,VWS V14.01,2013-02-20 06:59:00,
2013-02-19 23:04:00,33.6,31.8,29.69,WNW,289,3.1,3.6,93,0.00,,CLR,0.43,VWS V14.01,2013-02-20 07:04:00,
2013-02-19 23:09:00,33.8,32.0,29.69,WNW,289,3.6,3.6,93,0.00,,CLR,0.43,VWS V14.01,2013-02-20 07:09:00,
2013-02-19 23:14:00,33.8,32.3,29.69,WNW,289,4.5,4.9,94,0.00,,CLR,0.43,VWS V14.01,2013-02-20 07:14:00,
2013-02-19 23:19:00,34.2,32.6,29.69,WNW,289,4.0,4.0,94,0.00,,CLR,0.43,VWS V14.01,2013-02-20 07:19:00,
2013-02-19 23:24:00,34.2,32.9,29.69,WNW,289,3.1,3.6,95,0.00,,CLR,0.43,VWS V14.01,2013-02-20 07:24:00,
2013-02-19 23:30:00,34.5,33.2,29.69,WNW,290,3.6,3.6,95,0.00,,CLR,0.43,VWS V14.01,2013-02-20 07:30:00,
2013-02-19 23:35:00,34.5,33.5,29.69,WNW,289,2.7,3.6,96,0.00,,CLR,0.43,VWS V14.01,2013-02-20 07:35:00,
2013-02-19 23:40:00,34.7,33.4,29.69,WNW,289,3.1,3.6,95,0.00,,CLR,0.43,VWS V14.01,2013-02-20 07:40:00,
2013-02-19 23:45:00,34.7,33.7,29.72,WNW,289,0.0,3.6,96,0.00,,CLR,0.43,VWS V14.01,2013-02-20 07:45:00,
2013-02-19 23:50:00,34.7,33.7,29.72,WNW,288,0.0,0.0,96,0.00,,CLR,0.43,VWS V14.01,2013-02-20 07:50:00,
2013-02-19 23:55:00,34.5,33.5,29.72,WNW,289,4.0,4.9,96,0.00,,CLR,0.43,VWS V14.01,2013-02-20 07:55:00,